createdAt,value
2022-11-26T00:00:45.712Z,445.70
2022-11-26T00:01:45.798Z,412.60
2022-11-26T00:02:45.078Z,500.20
2022-11-26T00:50:14.255Z,388.30
2022-11-26T00:51:29.572Z,339.20
2022-11-26T00:52:17.494Z,199.60
2022-11-26T00:53:36.820Z,398.20
2022-11-26T00:54:44.093Z,450.20
2022-11-26T00:58:12.751Z,290.60
2022-11-26T00:59:02.319Z,279.00
2022-11-26T01:01:09.310Z,302.10
2022-11-26T01:02:20.500Z,307.60
2022-11-26T03:07:14.430Z,159.10
2022-11-26T03:07:28.818Z,166.80
2022-11-26T03:08:36.229Z,181.70
2022-11-26T03:20:20.151Z,155.90
2022-11-26T03:21:01.753Z,157.00
2022-11-26T03:22:01.421Z,156.00
2022-11-26T03:23:01.385Z,184.60
2022-11-26T03:24:01.526Z,181.60
2022-11-26T03:25:01.952Z,147.20
2022-11-26T03:26:02.333Z,210.30
2022-11-26T03:27:02.352Z,186.00
2022-11-26T03:28:01.613Z,129.20
2022-11-26T03:29:01.416Z,131.10
2022-11-26T03:32:10.272Z,124.10
2022-11-26T03:33:04.023Z,112.50
2022-11-26T03:34:03.985Z,141.90
2022-11-26T03:35:03.690Z,127.20
2022-11-26T03:36:03.672Z,117.10
2022-11-26T03:37:03.616Z,182.80
2022-11-26T03:38:03.638Z,111.90
2022-11-26T03:39:04.100Z,116.50
2022-11-26T03:40:03.740Z,117.80
2022-11-26T03:41:03.692Z,176.00
2022-11-26T03:42:03.705Z,128.70
2022-11-26T03:43:03.797Z,137.70
2022-11-26T03:44:03.556Z,120.10
2022-11-26T03:45:03.628Z,159.40
2022-11-26T03:46:03.762Z,154.40
2022-11-26T03:47:04.062Z,177.00
2022-11-26T03:48:05.153Z,130.90
2022-11-26T03:49:04.725Z,123.40
2022-11-26T03:50:03.965Z,140.00
2022-11-26T03:51:05.868Z,87.20
2022-11-26T03:52:03.546Z,144.60
2022-11-26T03:53:03.537Z,126.90
2022-11-26T03:54:03.730Z,151.10
2022-11-26T03:55:04.172Z,143.00
2022-11-26T03:56:03.761Z,198.10
2022-11-26T03:57:03.473Z,185.00
2022-11-26T03:58:03.511Z,157.00
2022-11-26T03:59:03.632Z,152.00
2022-11-26T04:00:04.562Z,147.60
2022-11-26T04:01:03.964Z,163.50
2022-11-26T04:02:03.719Z,230.90
2022-11-26T04:03:03.959Z,246.80
2022-11-26T04:04:03.805Z,251.20
2022-11-26T04:05:03.736Z,283.20
2022-11-26T04:06:03.412Z,208.30
2022-11-26T04:07:04.960Z,230.20
2022-11-26T04:08:04.802Z,276.40
2022-11-26T04:09:03.481Z,247.00
2022-11-26T04:10:03.821Z,289.00
2022-11-26T04:11:03.503Z,270.20
2022-11-26T04:12:05.822Z,192.90
2022-11-26T04:13:04.630Z,163.00
2022-11-26T04:14:03.391Z,374.00
2022-11-26T04:15:03.272Z,285.50
2022-11-26T04:16:03.441Z,420.90
2022-11-26T04:17:03.238Z,371.10
2022-11-26T04:18:04.192Z,437.90
2022-11-26T04:19:03.752Z,313.60
2022-11-26T04:20:03.737Z,290.70
2022-11-26T04:21:04.244Z,407.00
2022-11-26T04:22:04.391Z,427.00
2022-11-26T04:23:03.314Z,376.10
2022-11-26T04:24:03.439Z,460.10
2022-11-26T05:56:20.467Z,216.20
2022-11-26T05:57:00.669Z,217.60
2022-11-26T05:58:00.052Z,218.30
2022-11-26T06:06:01.110Z,177.00
2022-11-26T06:07:00.851Z,184.60
2022-11-26T06:48:29.651Z,224.40
2022-11-26T06:48:59.874Z,234.10
2022-11-26T06:49:59.565Z,264.20
2022-11-26T06:51:17.864Z,274.70
2022-11-26T06:52:13.633Z,261.80
2022-11-26T06:53:05.321Z,250.60
2022-11-26T06:54:06.051Z,360.10
2022-11-26T06:54:59.504Z,267.30
2022-11-26T06:56:27.596Z,287.30
2022-11-26T06:57:13.666Z,332.20
2022-11-26T06:58:14.000Z,268.50
2022-11-26T06:59:08.080Z,324.10
2022-11-26T07:00:12.338Z,326.20
2022-11-26T07:01:25.539Z,349.40
2022-11-26T07:22:08.905Z,299.70
2022-11-26T07:22:54.392Z,302.80
2022-11-26T07:24:28.961Z,272.50
2022-11-26T08:16:29.183Z,235.20
2022-11-26T08:17:28.141Z,231.30
2022-11-26T08:18:28.134Z,289.80
2022-11-26T08:19:28.167Z,231.10
2022-11-26T08:20:29.218Z,306.00
2022-11-26T08:21:28.063Z,229.70
2022-11-26T08:22:28.059Z,286.50
2022-11-26T08:23:29.922Z,234.20
2022-11-26T08:24:27.898Z,309.50
2022-11-26T08:25:27.987Z,305.00
2022-11-26T08:26:33.917Z,249.10
2022-11-26T08:27:29.556Z,292.70
2022-11-26T08:28:27.968Z,333.40
2022-11-26T08:29:28.034Z,302.80
2022-11-26T08:30:27.939Z,285.80
2022-11-26T08:31:28.410Z,313.60
2022-11-26T08:32:28.033Z,318.70
2022-11-26T08:33:28.063Z,269.30
2022-11-26T08:34:27.660Z,279.80
2022-11-26T08:35:51.179Z,308.60
2022-11-26T08:36:28.792Z,291.70
2022-11-26T08:37:27.781Z,246.60
2022-11-26T08:38:27.873Z,304.70
2022-11-26T08:39:27.793Z,287.00
2022-11-26T08:40:27.764Z,305.20
2022-11-26T08:41:27.699Z,271.60
2022-11-26T08:42:33.957Z,313.50
2022-11-26T08:44:05.228Z,292.00
2022-11-26T08:44:32.848Z,291.90
2022-11-26T08:45:34.248Z,249.90
2022-11-26T08:46:35.031Z,243.60
2022-11-26T08:47:35.482Z,246.30
2022-11-26T08:48:41.323Z,265.80
2022-11-26T09:54:33.040Z,168.80
2022-11-26T12:15:16.845Z,62.60
2022-11-26T12:16:12.552Z,61.70
2022-11-26T12:17:12.219Z,80.60
2022-11-26T12:18:25.293Z,64.70
2022-11-26T12:19:34.456Z,82.10
2022-11-26T12:20:13.922Z,76.80
2022-11-26T12:21:22.258Z,74.50
2022-11-26T12:22:15.028Z,78.00
2022-11-26T12:23:45.802Z,62.30
2022-11-26T12:24:23.622Z,71.60
2022-11-26T12:28:01.388Z,96.90
2022-11-26T12:28:44.772Z,83.00
2022-11-26T13:05:51.866Z,79.30
2022-11-26T13:06:51.227Z,76.30
2022-11-26T13:07:50.603Z,65.90
2022-11-26T13:09:19.361Z,60.70
2022-11-26T13:10:06.241Z,84.30
2022-11-26T13:33:37.845Z,76.50
2022-11-26T13:34:06.660Z,73.90
2022-11-26T13:35:27.832Z,80.80
2022-11-26T13:36:18.786Z,106.60
2022-11-26T13:39:33.694Z,91.70
2022-11-26T13:40:13.355Z,91.60
2022-11-26T13:41:32.239Z,71.60
2022-11-26T13:41:59.208Z,76.70
2022-11-26T13:43:05.135Z,74.70
2022-11-26T13:52:41.688Z,63.90
2022-11-26T13:53:11.141Z,70.40
2022-11-26T13:54:20.293Z,66.40
2022-11-26T13:55:16.355Z,74.20
2022-11-26T13:56:14.194Z,75.20
2022-11-26T13:57:18.882Z,87.00
2022-11-26T13:58:12.035Z,112.40
2022-11-26T13:59:17.417Z,88.50
2022-11-26T14:00:13.761Z,88.30
2022-11-26T14:01:16.388Z,83.90
2022-11-26T14:02:52.136Z,70.30
2022-11-26T14:03:18.907Z,76.00
2022-11-26T14:04:17.078Z,67.80
2022-11-26T14:05:33.233Z,54.70
2022-11-26T14:06:42.469Z,82.70
2022-11-26T14:07:13.145Z,90.60
2022-11-26T14:08:24.473Z,89.10
2022-11-26T14:09:15.309Z,90.60
2022-11-26T14:43:18.431Z,83.80
2022-11-26T14:44:28.032Z,82.50
2022-11-26T14:45:04.063Z,170.80
2022-11-26T14:46:43.572Z,116.20
2022-11-26T14:47:07.438Z,92.30
2022-11-26T14:48:00.738Z,85.60
2022-11-26T14:49:27.222Z,103.80
2022-11-26T15:17:42.574Z,102.00
2022-11-26T15:18:26.458Z,95.80
2022-11-26T15:19:35.886Z,132.60
2022-11-26T15:28:39.927Z,111.70
2022-11-26T15:31:54.782Z,93.20
2022-11-26T15:33:15.921Z,91.10
2022-11-26T15:34:04.426Z,94.30
2022-11-26T15:35:22.790Z,147.20
2022-11-26T15:37:06.726Z,130.70
2022-11-26T15:38:08.302Z,133.70
2022-11-26T15:39:07.083Z,124.60
2022-11-26T15:40:07.519Z,149.00
2022-11-26T15:44:11.920Z,101.80
2022-11-26T16:52:52.122Z,162.30
2022-11-26T16:54:20.849Z,143.30
2022-11-26T16:54:48.425Z,158.20
2022-11-26T16:56:01.731Z,142.50
2022-11-26T16:57:25.171Z,131.90
2022-11-26T16:57:59.063Z,178.70
2022-11-26T16:59:04.029Z,190.70
2022-11-26T17:00:13.854Z,150.00
2022-11-26T17:00:56.594Z,148.40
2022-11-26T17:02:07.986Z,150.70
2022-11-26T17:18:44.919Z,157.30
2022-11-26T17:19:45.663Z,151.90
2022-11-26T17:20:47.972Z,153.30
2022-11-26T17:22:15.873Z,168.80
2022-11-26T17:23:02.734Z,120.10
2022-11-26T17:24:09.894Z,120.50
2022-11-26T17:25:46.627Z,145.70
2022-11-26T17:26:54.695Z,132.20
2022-11-26T17:27:46.167Z,168.80
2022-11-26T17:28:31.944Z,154.10
2022-11-26T17:29:31.322Z,184.30
2022-11-26T17:30:32.252Z,136.50
2022-11-26T17:31:31.126Z,184.00
2022-11-26T17:32:30.864Z,124.00
2022-11-26T17:33:30.933Z,153.20
2022-11-26T17:34:30.955Z,157.30
2022-11-26T17:35:31.053Z,161.40
2022-11-26T17:36:36.518Z,151.30
2022-11-26T17:37:32.230Z,132.40
2022-11-26T17:38:30.781Z,179.10
2022-11-26T17:39:31.067Z,173.30
2022-11-26T17:40:30.614Z,144.40
2022-11-26T17:41:30.865Z,151.50
2022-11-26T17:42:35.110Z,158.10
2022-11-26T17:43:31.833Z,150.90
2022-11-26T17:44:30.832Z,137.10
2022-11-26T17:45:30.632Z,157.80
2022-11-26T17:46:35.730Z,140.80
2022-11-26T17:47:31.677Z,135.30
2022-11-26T17:48:30.851Z,148.50
2022-11-26T17:49:30.858Z,156.60
2022-11-26T17:50:30.593Z,139.70
2022-11-26T17:51:30.652Z,193.20
2022-11-26T17:52:30.668Z,139.20
2022-11-26T17:54:06.408Z,131.90
2022-11-26T17:54:49.832Z,163.30
2022-11-26T17:55:31.924Z,145.50
2022-11-26T17:56:30.593Z,182.50
2022-11-26T17:57:31.541Z,211.30
2022-11-26T17:58:38.836Z,153.60
2022-11-26T17:59:43.009Z,132.60
2022-11-26T18:00:36.313Z,157.40
2022-11-26T18:01:30.726Z,128.60
2022-11-26T18:02:30.981Z,154.10
2022-11-26T18:03:32.277Z,184.00
2022-11-26T18:04:30.352Z,216.00
2022-11-26T18:05:30.458Z,179.90
2022-11-26T18:06:30.360Z,150.00
2022-11-26T18:07:30.521Z,119.10
2022-11-26T18:08:30.389Z,158.50
2022-11-26T18:09:33.160Z,155.80
2022-11-26T18:10:33.204Z,142.00
2022-11-26T18:11:44.159Z,149.60
2022-11-26T18:12:42.127Z,148.30
2022-11-26T18:13:47.322Z,159.60
2022-11-26T18:14:37.900Z,197.90
2022-11-26T18:16:00.540Z,166.90
2022-11-26T18:16:41.078Z,162.10
2022-11-26T18:17:38.148Z,162.70
2022-11-26T18:18:37.653Z,171.00
2022-11-26T18:19:45.744Z,166.50
2022-11-26T18:20:47.787Z,177.80
2022-11-26T18:21:39.453Z,175.80
2022-11-26T18:22:45.644Z,151.50
2022-11-26T18:23:34.596Z,166.20
2022-11-26T18:24:40.780Z,170.70
2022-11-26T18:25:49.824Z,141.20
2022-11-26T18:26:36.657Z,171.90
2022-11-26T18:27:38.394Z,127.50
2022-11-26T18:28:37.896Z,159.70
2022-11-26T18:29:41.405Z,161.60
2022-11-26T18:30:36.994Z,138.20
2022-11-26T18:31:37.988Z,197.50
2022-11-26T18:32:35.109Z,164.70
2022-11-26T18:33:33.127Z,157.50
2022-11-26T18:34:39.418Z,141.20
2022-11-26T18:35:33.786Z,139.40
2022-11-26T18:36:41.552Z,168.50
2022-11-26T18:37:31.920Z,179.00
2022-11-26T18:38:30.936Z,153.30
2022-11-26T18:39:29.963Z,169.60
2022-11-26T18:40:30.191Z,182.20
2022-11-26T18:41:29.908Z,218.60
2022-11-26T18:42:37.075Z,182.10
2022-11-26T18:43:30.950Z,192.30
2022-11-26T18:44:30.032Z,187.90
2022-11-26T18:45:29.815Z,119.90
2022-11-26T18:46:29.914Z,132.30
2022-11-26T18:47:29.738Z,145.80
2022-11-26T18:48:29.872Z,188.10
2022-11-26T18:49:29.856Z,159.10
2022-11-26T18:50:30.087Z,141.70
2022-11-26T18:51:29.847Z,143.20
2022-11-26T18:52:29.760Z,148.20
2022-11-26T18:53:35.048Z,143.20
2022-11-26T18:54:42.482Z,163.70
2022-11-26T18:55:29.999Z,162.30
2022-11-26T18:56:35.262Z,155.50
2022-11-26T18:57:34.610Z,214.40
2022-11-26T18:58:29.897Z,155.70
2022-11-26T18:59:35.199Z,177.60
2022-11-26T19:00:54.118Z,164.00
2022-11-26T19:01:53.189Z,202.50
2022-11-26T19:02:40.969Z,179.10
2022-11-26T19:03:48.598Z,223.60
2022-11-26T19:04:33.711Z,158.50
2022-11-26T19:05:43.390Z,195.80
2022-11-26T19:06:40.132Z,183.70
2022-11-26T19:07:41.142Z,184.50
2022-11-26T19:08:34.684Z,147.20
2022-11-26T19:09:43.769Z,186.90
2022-11-26T19:10:31.597Z,188.70
2022-11-26T19:11:31.482Z,135.60
2022-11-26T19:12:31.994Z,177.10
2022-11-26T19:13:32.081Z,213.90
2022-11-26T19:14:32.042Z,178.90
2022-11-26T19:15:32.507Z,211.00
2022-11-26T19:16:36.639Z,178.60
2022-11-26T19:17:45.577Z,150.80
2022-11-26T19:18:52.031Z,224.20
2022-11-26T19:19:42.028Z,212.30
2022-11-26T19:20:38.739Z,238.30
2022-11-26T19:21:40.961Z,200.20
2022-11-26T19:25:18.142Z,239.20
2022-11-26T19:25:51.113Z,238.30
2022-11-26T19:26:46.847Z,210.60
2022-11-26T19:27:41.503Z,218.40
2022-11-26T19:35:25.785Z,367.30
2022-11-26T19:36:16.608Z,168.80
2022-11-26T19:37:16.648Z,142.50
2022-11-26T19:38:20.734Z,184.10
2022-11-26T19:39:09.328Z,172.30
2022-11-26T19:40:08.481Z,202.90
2022-11-26T19:41:09.230Z,210.00
2022-11-26T19:42:12.405Z,168.70
2022-11-26T19:43:08.244Z,167.10
2022-11-26T19:44:08.947Z,168.30
2022-11-26T19:45:08.224Z,242.00
2022-11-26T19:46:14.760Z,210.00
2022-11-26T19:47:25.524Z,182.20
2022-11-26T19:48:34.362Z,165.10
2022-11-26T19:49:09.652Z,150.60
2022-11-26T19:50:08.073Z,228.80
2022-11-26T19:51:20.559Z,208.40
2022-11-26T19:52:09.522Z,220.80
2022-11-26T19:53:08.308Z,177.00
2022-11-26T20:05:27.374Z,221.20
2022-11-26T20:06:28.465Z,209.60
2022-11-26T20:07:10.229Z,198.10
2022-11-26T20:08:21.811Z,209.80
2022-11-26T20:09:35.222Z,192.90
2022-11-26T20:10:19.573Z,181.00
2022-11-26T20:11:09.255Z,172.60
2022-11-26T20:12:23.102Z,199.00
2022-11-26T20:13:14.760Z,227.50
2022-11-26T20:14:20.791Z,199.80
2022-11-26T20:15:41.024Z,207.20
2022-11-26T20:16:23.783Z,203.90
2022-11-26T20:17:10.091Z,206.40
2022-11-26T20:18:18.465Z,195.40
2022-11-26T20:19:49.332Z,197.00
2022-11-26T20:20:14.616Z,209.00
2022-11-26T20:21:25.487Z,202.70
2022-11-26T20:22:18.900Z,207.10
2022-11-26T20:23:32.565Z,193.90
2022-11-26T20:24:15.004Z,206.90
2022-11-26T20:25:18.248Z,211.80
2022-11-26T20:26:09.951Z,216.90
2022-11-26T20:29:36.408Z,199.20
2022-11-26T20:30:45.016Z,195.10
2022-11-26T20:32:18.392Z,222.90
2022-11-26T20:32:42.062Z,196.60
2022-11-26T20:34:16.772Z,208.80
2022-11-26T20:34:37.978Z,197.90
2022-11-26T20:35:36.020Z,182.70
2022-11-26T20:36:50.010Z,242.20
2022-11-26T20:37:36.980Z,193.30
2022-11-26T20:38:35.122Z,226.90
2022-11-26T20:39:35.155Z,213.10
2022-11-26T20:40:35.031Z,194.00
2022-11-26T20:41:35.152Z,207.30
2022-11-26T20:42:40.234Z,224.60
2022-11-26T20:43:58.531Z,229.70
2022-11-26T20:44:46.275Z,212.60
2022-11-26T20:45:50.208Z,183.00
2022-11-26T20:47:02.637Z,186.90
2022-11-26T20:48:02.645Z,226.80
2022-11-26T20:48:51.827Z,213.20
2022-11-26T20:50:13.772Z,198.20
2022-11-26T20:50:54.606Z,223.10
2022-11-26T21:45:44.698Z,176.60
2022-11-26T21:46:51.893Z,174.50
2022-11-26T21:47:37.096Z,131.50
2022-11-26T21:48:35.024Z,169.90
2022-11-26T21:49:28.198Z,209.70
2022-11-26T21:50:44.807Z,197.60
2022-11-26T21:51:29.152Z,223.40
2022-11-26T21:52:27.504Z,147.60
2022-11-26T21:53:30.265Z,132.40
2022-11-26T21:54:31.836Z,169.60
2022-11-26T21:55:29.579Z,175.50
2022-11-26T21:56:26.338Z,190.00
2022-11-26T21:57:50.521Z,199.80
2022-11-26T21:58:33.442Z,232.70
2022-11-26T21:59:32.745Z,198.10
2022-11-26T22:00:32.307Z,184.50
2022-11-26T22:01:27.493Z,221.90
2022-11-26T22:02:50.544Z,221.40
2022-11-26T22:03:37.606Z,154.60
2022-11-26T22:04:41.381Z,166.80
2022-11-26T22:05:32.604Z,166.90
2022-11-26T22:06:33.349Z,152.00
2022-11-26T22:07:30.755Z,189.40
2022-11-26T22:08:36.856Z,175.40
2022-11-26T22:09:38.597Z,160.00
2022-11-26T22:33:50.843Z,185.90
2022-11-26T22:35:00.557Z,185.50
2022-11-26T22:35:40.663Z,145.10
2022-11-26T22:37:11.291Z,149.80
2022-11-26T22:37:50.467Z,183.70
2022-11-26T22:38:50.859Z,139.90
2022-11-26T22:39:55.937Z,158.70
2022-11-26T22:40:51.900Z,143.50
2022-11-26T22:41:43.277Z,137.50
2022-11-26T22:42:55.111Z,180.30
2022-11-26T22:43:50.860Z,271.30
2022-11-26T22:45:07.586Z,205.80
2022-11-26T22:45:53.318Z,202.30
2022-11-26T22:46:52.286Z,181.90
2022-11-26T23:21:25.793Z,117.70
2022-11-26T23:22:03.701Z,117.40
2022-11-26T23:36:16.436Z,169.40
2022-11-26T23:36:56.160Z,168.50
2022-11-26T23:41:21.799Z,154.70
2022-11-26T23:42:22.957Z,153.90
2022-11-26T23:43:08.591Z,176.40
2022-11-26T23:44:04.621Z,201.00
2022-11-26T23:45:01.365Z,189.60
2022-11-26T23:46:04.602Z,234.90
2022-11-26T23:47:35.661Z,197.50
2022-11-26T23:47:58.366Z,191.30
2022-11-26T23:49:02.464Z,191.60
2022-11-26T23:50:03.217Z,226.00
2022-11-26T23:51:00.967Z,195.30
2022-11-26T23:52:03.975Z,177.80
2022-11-26T23:52:56.619Z,161.10
2022-11-26T23:53:56.618Z,155.70
2022-11-26T23:55:13.892Z,163.60
2022-11-26T23:56:24.054Z,180.30
2022-11-26T23:57:13.483Z,159.70
2022-11-26T23:58:10.643Z,200.10
2022-11-26T23:59:03.895Z,193.90
